Time;durP1;ratioP1;P1;durP2;ratioP2;P2;SDS_P1;SDS_P2;PMS_P1;PMS_P2;Temp;Humidity;BMP_temperature;BMP_pressure;BME280_temperature;BME280_humidity;BME280_pressure;Samples;Min_cycle;Max_cycle;Signal;HPM_P1;HPM_P2
2022/04/03 00:00:09;;;;;;;0.00;0.00;;;;;;;-0.28;93.37;98767.34;5030355;28;20648;-53
2022/04/03 00:02:37;;;;;;;0.00;0.00;;;;;;;-0.34;92.52;98771.03;5030647;28;20214;-52
2022/04/03 00:05:06;;;;;;;0.00;0.00;;;;;;;-0.35;93.23;98773.69;5029629;28;20219;-53
2022/04/03 00:07:33;;;;;;;0.00;0.00;;;;;;;-0.45;93.81;98768.16;4991008;28;20189;-51
2022/04/03 00:10:00;;;;;;;0.00;0.00;;;;;;;-0.47;93.99;98777.69;4990496;28;20192;-52
2022/04/03 00:12:27;;;;;;;0.00;0.00;;;;;;;-0.53;95.09;98768.56;4989596;28;20550;-51
2022/04/03 00:14:54;;;;;;;0.00;0.00;;;;;;;-0.59;95.58;98768.88;4990559;28;20213;-49
2022/04/03 00:17:21;;;;;;;0.00;0.00;;;;;;;-0.70;95.91;98771.16;4990998;28;20247;-53
2022/04/03 00:19:48;;;;;;;0.00;0.00;;;;;;;-0.73;96.34;98776.41;4990016;28;20663;-51
2022/04/03 00:22:16;;;;;;;0.00;0.00;;;;;;;-0.80;96.21;98771.59;4991041;28;20185;-50
2022/04/03 00:24:43;;;;;;;0.00;0.00;;;;;;;-0.84;97.33;98771.84;5003022;28;20216;-53
2022/04/03 00:27:10;;;;;;;0.00;0.00;;;;;;;-0.71;96.26;98775.47;5010385;28;20188;-51
2022/04/03 00:29:37;;;;;;;0.00;0.00;;;;;;;-0.76;96.35;98769.72;5010322;28;20192;-52
2022/04/03 00:32:04;;;;;;;0.00;0.00;;;;;;;-0.75;96.35;98779.06;5010124;28;20548;-53
2022/04/03 00:34:31;;;;;;;0.00;0.00;;;;;;;-0.71;96.79;98780.59;5009775;28;20220;-53
2022/04/03 00:36:58;;;;;;;0.00;0.00;;;;;;;-0.74;97.27;98783.28;5009907;28;20200;-52
2022/04/03 00:39:26;;;;;;;0.00;0.00;;;;;;;-0.73;97.42;98778.97;5010427;28;20189;-51
2022/04/03 00:41:53;;;;;;;0.00;0.00;;;;;;;-0.70;97.44;98781.41;5007773;28;20192;-52
2022/04/03 00:44:20;;;;;;;0.00;0.00;;;;;;;-0.64;96.34;98781.09;5002928;28;20718;-51
2022/04/03 00:46:48;;;;;;;0.00;0.00;;;;;;;-0.56;95.73;98789.25;5010229;28;20185;-53
2022/04/03 00:49:15;;;;;;;0.00;0.00;;;;;;;-0.47;94.97;98782.81;5010366;28;20606;-51
2022/04/03 00:51:41;;;;;;;0.00;0.00;;;;;;;-0.42;93.82;98785.16;5009812;28;20193;-53
2022/04/03 00:54:08;;;;;;;0.00;0.00;;;;;;;-0.38;93.52;98784.09;5009909;28;20222;-52
2022/04/03 00:56:37;;;;;;;0.00;0.00;;;;;;;-0.39;94.37;98783.25;5010052;28;20208;-52
2022/04/03 00:59:04;;;;;;;0.00;0.00;;;;;;;-0.37;93.98;98788.31;5010060;28;20262;-53
2022/04/03 01:01:30;;;;;;;0.00;0.00;;;;;;;-0.43;93.30;98778.38;5010187;28;20213;-51
2022/04/03 01:03:57;;;;;;;0.00;0.00;;;;;;;-0.39;93.41;98782.44;5008154;28;20586;-53
2022/04/03 01:06:24;;;;;;;0.00;0.00;;;;;;;-0.41;92.47;98782.50;5010115;28;20208;-53
2022/04/03 01:08:51;;;;;;;0.00;0.00;;;;;;;-0.39;92.59;98785.00;5010192;28;20264;-52
2022/04/03 01:11:21;;;;;;;0.00;0.00;;;;;;;-0.42;92.69;98782.59;5008131;28;20584;-50
2022/04/03 01:13:51;;;;;;;0.00;0.00;;;;;;;-0.38;92.28;98790.03;5009913;28;20735;-51
2022/04/03 01:16:18;;;;;;;0.00;0.00;;;;;;;-0.36;92.14;98783.09;5010153;28;20192;-51
2022/04/03 01:18:44;;;;;;;0.00;0.00;;;;;;;-0.29;91.64;98783.63;5013444;28;20199;-49
2022/04/03 01:21:12;;;;;;;0.00;0.00;;;;;;;-0.31;92.58;98783.69;5013434;28;20255;-48
2022/04/03 01:23:39;;;;;;;0.00;0.00;;;;;;;-0.28;92.75;98792.16;5009505;28;20279;-49
2022/04/03 01:26:07;;;;;;;0.00;0.00;;;;;;;-0.26;92.57;98786.03;4993519;28;20196;-51
2022/04/03 01:28:33;;;;;;;0.00;0.00;;;;;;;-0.27;91.52;98793.81;4994090;28;20185;-52
2022/04/03 01:31:00;;;;;;;0.00;0.00;;;;;;;-0.30;91.54;98792.25;4993653;28;20193;-52
2022/04/03 01:33:27;;;;;;;0.00;0.00;;;;;;;-0.33;91.99;98785.50;4993621;28;20242;-52
2022/04/03 01:35:54;;;;;;;0.00;0.00;;;;;;;-0.26;91.36;98786.03;4993162;28;20273;-51
2022/04/03 01:38:21;;;;;;;0.00;0.00;;;;;;;-0.26;90.91;98796.31;4993807;28;20204;-50
2022/04/03 01:40:48;;;;;;;0.00;0.00;;;;;;;-0.23;91.14;98787.59;4993616;28;20189;-49
2022/04/03 01:43:16;;;;;;;0.00;0.00;;;;;;;-0.22;91.20;98786.69;4997984;28;20220;-51
2022/04/03 01:45:43;;;;;;;0.00;0.00;;;;;;;-0.26;90.98;98787.75;5006649;28;20208;-51
2022/04/03 01:48:11;;;;;;;0.00;0.00;;;;;;;-0.22;91.30;98784.97;5013001;28;20189;-51
2022/04/03 01:50:37;;;;;;;0.00;0.00;;;;;;;-0.30;91.31;98779.41;5012965;28;20227;-52
2022/04/03 01:53:05;;;;;;;0.00;0.00;;;;;;;-0.24;91.98;98784.22;5013056;28;20239;-49
2022/04/03 01:55:32;;;;;;;0.00;0.00;;;;;;;-0.33;91.72;98774.44;5012622;28;20560;-51
2022/04/03 01:58:00;;;;;;;0.00;0.00;;;;;;;-0.25;91.85;98787.69;5012992;28;20182;-52
2022/04/03 02:00:28;;;;;;;0.00;0.00;;;;;;;-0.27;90.96;98778.41;5012351;28;20275;-49
2022/04/03 02:02:55;;;;;;;0.00;0.00;;;;;;;-0.26;90.58;98785.19;5012713;28;20552;-49
2022/04/03 02:05:22;;;;;;;0.00;0.00;;;;;;;-0.29;90.75;98781.06;5011376;28;20661;-52
2022/04/03 02:07:49;;;;;;;0.00;0.00;;;;;;;-0.25;91.62;98785.13;5012792;28;20185;-51
2022/04/03 02:10:15;;;;;;;0.00;0.00;;;;;;;-0.30;91.58;98780.22;5012439;28;20188;-51
2022/04/03 02:12:43;;;;;;;0.00;0.00;;;;;;;-0.26;91.99;98788.59;5012498;28;20199;-52
2022/04/03 02:15:12;;;;;;;0.00;0.00;;;;;;;-0.28;92.75;98792.16;5012319;28;20216;-49
2022/04/03 02:17:41;;;;;;;0.00;0.00;;;;;;;-0.34;91.84;98790.72;5012435;28;20185;-50
2022/04/03 02:20:10;;;;;;;0.00;0.00;;;;;;;-0.39;92.88;98779.88;5002980;28;20452;-51
2022/04/03 02:22:37;;;;;;;0.00;0.00;;;;;;;-0.43;92.10;98786.88;4992946;28;20193;-52
2022/04/03 02:25:09;;;;;;;0.00;0.00;;;;;;;-0.40;93.18;98785.91;5007751;28;20208;-51
2022/04/03 02:27:36;;;;;;;0.00;0.00;;;;;;;-0.44;94.49;98792.91;5012544;28;20196;-52
2022/04/03 02:30:05;;;;;;;0.00;0.00;;;;;;;-0.50;94.95;98777.84;5012215;28;20700;-52
2022/04/03 02:32:32;;;;;;;0.00;0.00;;;;;;;-0.53;95.43;98778.03;5012297;28;20263;-52
2022/04/03 02:35:00;;;;;;;0.00;0.00;;;;;;;-0.59;95.54;98784.25;5011760;28;20227;-51
2022/04/03 02:37:28;;;;;;;0.00;0.00;;;;;;;-0.62;96.06;98780.13;5010971;28;20292;-52
2022/04/03 02:39:54;;;;;;;0.00;0.00;;;;;;;-0.63;96.19;98773.34;5011973;28;20216;-52
2022/04/03 02:42:22;;;;;;;0.00;0.00;;;;;;;-0.60;96.41;98780.03;5012363;28;20451;-49
2022/04/03 02:44:48;;;;;;;0.00;0.00;;;;;;;-0.56;96.67;98783.28;5005331;28;20220;-51
2022/04/03 02:47:15;;;;;;;0.00;0.00;;;;;;;-0.50;97.42;98788.09;5008945;28;20632;-49
2022/04/03 02:49:42;;;;;;;0.00;0.00;;;;;;;-0.51;95.30;98787.28;5011469;28;20193;-53
2022/04/03 02:52:11;;;;;;;0.00;0.00;;;;;;;-0.48;94.11;98778.59;5010808;28;20644;-49
2022/04/03 02:54:38;;;;;;;0.00;0.00;;;;;;;-0.45;94.22;98789.53;5011344;28;20266;-50
2022/04/03 02:57:05;;;;;;;0.00;0.00;;;;;;;-0.43;94.45;98783.50;5011909;28;20744;-50
2022/04/03 02:59:33;;;;;;;0.00;0.00;;;;;;;-0.51;94.81;98782.16;5011879;28;20706;-50
2022/04/03 03:02:00;;;;;;;0.00;0.00;;;;;;;-0.44;94.07;98780.09;5011367;28;20188;-50
2022/04/03 03:04:26;;;;;;;0.00;0.00;;;;;;;-0.40;94.41;98783.34;5011135;28;20215;-51
2022/04/03 03:06:53;;;;;;;0.00;0.00;;;;;;;-0.36;93.70;98777.97;5011715;28;20283;-51
2022/04/03 03:09:22;;;;;;;0.00;0.00;;;;;;;-0.35;92.93;98784.75;5011685;28;20184;-51
2022/04/03 03:11:49;;;;;;;0.00;0.00;;;;;;;-0.45;93.65;98776.72;5011533;28;20217;-48
2022/04/03 03:14:16;;;;;;;0.00;0.00;;;;;;;-0.47;95.02;98777.69;5010807;28;20212;-49
2022/04/03 03:16:43;;;;;;;0.00;0.00;;;;;;;-0.45;95.88;98775.88;5011531;28;20696;-50
2022/04/03 03:19:09;;;;;;;0.00;0.00;;;;;;;-0.51;96.01;98778.75;5008157;28;20199;-52
2022/04/03 03:21:37;;;;;;;0.00;0.00;;;;;;;-0.43;96.72;98783.50;5011132;28;20192;-52
2022/04/03 03:24:04;;;;;;;0.00;0.00;;;;;;;-0.50;94.97;98783.81;5010997;28;20196;-53
2022/04/03 03:26:32;;;;;;;0.00;0.00;;;;;;;-0.50;95.14;98791.50;5003562;28;20190;-50
2022/04/03 03:28:59;;;;;;;0.00;0.00;;;;;;;-0.55;96.17;98790.91;5006658;28;20196;-50
2022/04/03 03:31:26;;;;;;;0.00;0.00;;;;;;;-0.55;97.53;98798.59;5006996;28;20188;-50
2022/04/03 03:33:52;;;;;;;0.00;0.00;;;;;;;-0.61;98.23;98799.72;5010836;28;20558;-50
2022/04/03 03:36:19;;;;;;;0.00;0.00;;;;;;;-0.64;98.85;98796.47;5010488;28;20193;-51
2022/04/03 03:38:47;;;;;;;0.00;0.00;;;;;;;-0.69;99.32;98798.44;5006321;28;20215;-52
2022/04/03 03:41:15;;;;;;;0.00;0.00;;;;;;;-0.69;99.99;98790.75;5010453;28;20204;-49
2022/04/03 03:43:44;;;;;;;0.00;0.00;;;;;;;-0.69;99.46;98794.16;5008221;28;20214;-53
2022/04/03 03:46:11;;;;;;;0.00;0.00;;;;;;;-0.69;99.59;98794.16;5000646;28;20207;-52
2022/04/03 03:48:39;;;;;;;0.00;0.00;;;;;;;-0.69;99.48;98799.28;5003442;28;20684;-49
2022/04/03 03:51:06;;;;;;;0.00;0.00;;;;;;;-0.69;99.68;98803.56;5005333;28;20185;-50
2022/04/03 03:53:33;;;;;;;0.00;0.00;;;;;;;-0.73;99.33;98799.50;5006753;28;20251;-49
2022/04/03 03:56:00;;;;;;;0.00;0.00;;;;;;;-0.71;99.45;98800.25;5008012;28;20196;-49
2022/04/03 03:58:27;;;;;;;0.00;0.00;;;;;;;-0.71;100.00;98801.09;5003462;28;20176;-50
2022/04/03 04:00:55;;;;;;;0.00;0.00;;;;;;;-0.68;99.78;98806.06;4998999;28;20716;-51
2022/04/03 04:03:22;;;;;;;0.00;0.00;;;;;;;-0.70;99.81;98807.03;4998841;28;20219;-52
2022/04/03 04:05:49;;;;;;;0.00;0.00;;;;;;;-0.70;100.00;98805.31;5004738;28;20295;-49
2022/04/03 04:08:16;;;;;;;0.00;0.00;;;;;;;-0.68;100.00;98811.19;5009448;28;20271;-49
2022/04/03 04:10:43;;;;;;;0.00;0.00;;;;;;;-0.66;100.00;98811.94;5009529;28;20268;-49
2022/04/03 04:13:10;;;;;;;0.00;0.00;;;;;;;-0.63;100.00;98811.81;5009772;28;20193;-49
2022/04/03 04:15:37;;;;;;;0.00;0.00;;;;;;;-0.61;100.00;98820.25;5009457;28;20558;-49
2022/04/03 04:18:05;;;;;;;0.00;0.00;;;;;;;-0.59;100.00;98815.03;5010037;28;20200;-50
2022/04/03 04:20:32;;;;;;;0.00;0.00;;;;;;;-0.54;100.00;98810.50;5010153;28;20205;-50
2022/04/03 04:23:00;;;;;;;0.00;0.00;;;;;;;-0.53;100.00;98822.41;5008981;28;20195;-49
2022/04/03 04:25:27;;;;;;;0.00;0.00;;;;;;;-0.52;100.00;98818.09;5005791;28;20188;-53
2022/04/03 04:27:54;;;;;;;0.00;0.00;;;;;;;-0.54;100.00;98814.81;5009785;28;20246;-51
2022/04/03 04:30:20;;;;;;;0.00;0.00;;;;;;;-0.57;100.00;98820.09;5009536;28;20669;-53
2022/04/03 04:32:47;;;;;;;0.00;0.00;;;;;;;-0.57;100.00;98825.22;5010534;28;20276;-53
2022/04/03 04:35:15;;;;;;;0.00;0.00;;;;;;;-0.58;100.00;98826.94;5009739;28;20223;-51
2022/04/03 04:37:42;;;;;;;0.00;0.00;;;;;;;-0.62;100.00;98822.88;5010237;28;20212;-50
2022/04/03 04:40:10;;;;;;;0.00;0.00;;;;;;;-0.66;100.00;98827.34;5009938;28;20212;-49
2022/04/03 04:42:37;;;;;;;0.00;0.00;;;;;;;-0.67;100.00;98824.81;5010061;28;20189;-52
2022/04/03 04:45:06;;;;;;;0.00;0.00;;;;;;;-0.68;100.00;98833.44;5009620;28;20205;-51
2022/04/03 04:47:37;;;;;;;0.00;0.00;;;;;;;-0.66;100.00;98836.75;5007909;28;20655;-49
2022/04/03 04:50:07;;;;;;;0.00;0.00;;;;;;;-0.67;100.00;98832.53;5029444;28;20195;-50
2022/04/03 04:52:35;;;;;;;0.00;0.00;;;;;;;-0.70;100.00;98841.19;5032420;28;20260;-53
2022/04/03 04:55:05;;;;;;;0.00;0.00;;;;;;;-0.75;100.00;98843.97;5033241;28;20293;-50
2022/04/03 04:57:32;;;;;;;0.00;0.00;;;;;;;-0.78;100.00;98844.13;5033606;28;20203;-50
2022/04/03 04:59:59;;;;;;;0.00;0.00;;;;;;;-0.75;100.00;98850.84;5033442;28;20180;-50
2022/04/03 05:02:26;;;;;;;0.00;0.00;;;;;;;-0.75;100.00;98843.16;5033704;28;20188;-49
2022/04/03 05:04:53;;;;;;;0.00;0.00;;;;;;;-0.70;100.00;98848.03;5032993;28;20595;-52
2022/04/03 05:07:20;;;;;;;0.00;0.00;;;;;;;-0.74;100.00;98852.50;5033178;28;20233;-50
2022/04/03 05:09:49;;;;;;;0.00;0.00;;;;;;;-0.71;100.00;98856.63;5033495;28;20657;-50
2022/04/03 05:12:16;;;;;;;0.00;0.00;;;;;;;-0.74;100.00;98862.75;5033676;28;20212;-52
2022/04/03 05:14:43;;;;;;;0.00;0.00;;;;;;;-0.73;100.00;98861.84;5032859;28;20196;-51
2022/04/03 05:17:10;;;;;;;0.00;0.00;;;;;;;-0.73;100.00;98858.44;5033388;28;20343;-51
2022/04/03 05:19:38;;;;;;;0.00;0.00;;;;;;;-0.60;100.00;98862.09;5032753;28;20190;-49
2022/04/03 05:22:05;;;;;;;0.00;0.00;;;;;;;-0.54;100.00;98866.91;5033255;28;20659;-50
2022/04/03 05:24:31;;;;;;;0.00;0.00;;;;;;;-0.50;98.80;98863.31;5032790;28;20211;-52
2022/04/03 05:27:00;;;;;;;0.00;0.00;;;;;;;-0.41;97.14;98868.88;5033244;28;20220;-50
2022/04/03 05:29:26;;;;;;;0.00;0.00;;;;;;;-0.47;96.72;98870.84;5033180;28;20187;-50
2022/04/03 05:31:53;;;;;;;0.00;0.00;;;;;;;-0.42;97.01;98874.91;5032678;28;20189;-49
2022/04/03 05:34:20;;;;;;;0.00;0.00;;;;;;;-0.39;96.27;98875.59;5032472;28;20205;-50
2022/04/03 05:36:47;;;;;;;0.00;0.00;;;;;;;-0.35;94.47;98878.84;5032773;28;20650;-53
2022/04/03 05:39:13;;;;;;;0.00;0.00;;;;;;;-0.28;94.42;98880.22;5032833;28;20191;-50
2022/04/03 05:41:40;;;;;;;0.00;0.00;;;;;;;-0.29;93.18;98883.69;5032541;28;20683;-49
2022/04/03 05:44:09;;;;;;;0.00;0.00;;;;;;;-0.23;94.65;98880.81;5032195;28;20203;-51
2022/04/03 05:46:35;;;;;;;0.00;0.00;;;;;;;-0.16;93.43;98883.88;5031057;28;20188;-52
2022/04/03 05:49:02;;;;;;;0.00;0.00;;;;;;;-0.11;93.90;98883.69;5003899;28;20196;-49
2022/04/03 05:51:29;;;;;;;0.00;0.00;;;;;;;-0.11;93.32;98884.50;5012914;28;20193;-52
2022/04/03 05:53:56;;;;;;;0.00;0.00;;;;;;;-0.14;91.83;98886.41;5012835;28;20260;-49
2022/04/03 05:56:27;;;;;;;0.00;0.00;;;;;;;-0.04;91.69;98885.84;5012863;28;20201;-53
2022/04/03 05:58:54;;;;;;;0.00;0.00;;;;;;;-0.03;92.06;98884.94;5012800;28;20185;-51
2022/04/03 06:01:23;;;;;;;0.00;0.00;;;;;;;0.01;93.93;98889.91;5012743;28;20188;-53
2022/04/03 06:03:51;;;;;;;0.00;0.00;;;;;;;0.10;94.48;98897.16;5012369;28;20279;-49
2022/04/03 06:06:18;;;;;;;0.00;0.00;;;;;;;0.18;94.00;98905.31;5010985;28;20297;-52
2022/04/03 06:08:44;;;;;;;0.00;0.00;;;;;;;0.21;94.30;98904.31;5012323;28;20189;-50
2022/04/03 06:11:11;;;;;;;0.00;0.00;;;;;;;0.31;94.48;98902.94;5012697;28;20189;-50
2022/04/03 06:13:38;;;;;;;0.00;0.00;;;;;;;0.42;94.66;98904.97;5012694;28;20211;-50
2022/04/03 06:16:05;;;;;;;0.00;0.00;;;;;;;0.39;93.76;98907.69;5012196;28;20208;-49
2022/04/03 06:18:33;;;;;;;0.00;0.00;;;;;;;0.47;93.95;98912.41;5012493;28;20212;-52
2022/04/03 06:21:00;;;;;;;0.00;0.00;;;;;;;0.53;93.21;98915.47;5011908;28;20195;-50
2022/04/03 06:23:27;;;;;;;0.00;0.00;;;;;;;0.54;93.56;98914.56;5009144;28;20221;-53
2022/04/03 06:25:55;;;;;;;0.00;0.00;;;;;;;0.67;93.39;98913.94;5011744;28;20193;-52
2022/04/03 06:28:23;;;;;;;0.00;0.00;;;;;;;0.72;93.02;98911.94;5007219;28;20196;-50
2022/04/03 06:30:50;;;;;;;0.00;0.00;;;;;;;0.88;93.36;98919.69;5010452;28;20199;-50
2022/04/03 06:33:19;;;;;;;0.00;0.00;;;;;;;0.98;88.94;98925.16;5011634;28;20222;-50
2022/04/03 06:35:47;;;;;;;0.00;0.00;;;;;;;1.05;88.29;98923.09;5010032;28;20598;-49
2022/04/03 06:38:15;;;;;;;0.00;0.00;;;;;;;0.99;84.43;98925.09;5012065;28;20203;-50
2022/04/03 06:40:45;;;;;;;0.00;0.00;;;;;;;1.17;84.42;98932.69;5011831;28;20567;-51
2022/04/03 06:43:13;;;;;;;0.00;0.00;;;;;;;1.17;82.84;98932.69;5012288;28;20190;-50
2022/04/03 06:45:39;;;;;;;0.00;0.00;;;;;;;1.29;82.46;98928.63;5011290;28;20182;-51
2022/04/03 06:48:06;;;;;;;0.00;0.00;;;;;;;1.25;81.48;98932.28;5012157;28;20194;-50
2022/04/03 06:50:33;;;;;;;0.00;0.00;;;;;;;1.34;80.27;98926.63;5017030;28;20208;-49
2022/04/03 06:53:02;;;;;;;0.00;0.00;;;;;;;1.19;82.23;98938.56;5031152;28;20215;-50
2022/04/03 06:55:28;;;;;;;0.00;0.00;;;;;;;1.24;82.01;98944.31;5030383;28;20295;-50
2022/04/03 06:57:55;;;;;;;0.00;0.00;;;;;;;1.28;81.70;98947.56;5030566;28;20616;-49
2022/04/03 07:00:22;;;;;;;0.00;0.00;;;;;;;1.14;81.20;98946.56;5030716;28;20266;-50
2022/04/03 07:02:49;;;;;;;0.00;0.00;;;;;;;1.35;80.74;98950.59;5031769;28;20189;-52
2022/04/03 07:05:16;;;;;;;0.00;0.00;;;;;;;1.17;81.68;98953.25;5030958;28;20243;-50
2022/04/03 07:07:43;;;;;;;0.00;0.00;;;;;;;1.21;80.77;98954.75;5031085;28;20238;-50
2022/04/03 07:10:11;;;;;;;0.00;0.00;;;;;;;1.44;80.51;98950.94;5030527;28;20191;-49
2022/04/03 07:12:38;;;;;;;0.00;0.00;;;;;;;1.37;80.65;98951.34;5031508;28;20180;-50
2022/04/03 07:15:08;;;;;;;0.00;0.00;;;;;;;1.55;79.44;98954.66;5030080;28;20212;-51
2022/04/03 07:17:35;;;;;;;0.00;0.00;;;;;;;1.66;78.93;98954.88;5030880;28;20538;-52
2022/04/03 07:20:02;;;;;;;0.00;0.00;;;;;;;1.66;80.05;98960.00;5031007;28;20493;-50
2022/04/03 07:22:28;;;;;;;0.00;0.00;;;;;;;1.79;79.00;98964.47;5030579;28;20195;-49
2022/04/03 07:24:55;;;;;;;0.00;0.00;;;;;;;1.23;80.38;98967.53;5030540;28;20295;-50
2022/04/03 07:27:23;;;;;;;0.00;0.00;;;;;;;1.62;80.77;98971.41;5030863;28;20539;-50
2022/04/03 07:29:50;;;;;;;0.00;0.00;;;;;;;1.43;80.36;98974.16;5030760;28;20180;-48
2022/04/03 07:32:17;;;;;;;0.00;0.00;;;;;;;1.63;81.37;98970.47;5030724;28;20193;-50
2022/04/03 07:34:44;;;;;;;0.00;0.00;;;;;;;1.86;80.09;98976.94;5030180;28;20304;-51
2022/04/03 07:37:11;;;;;;;0.00;0.00;;;;;;;1.60;78.61;98968.06;5030257;28;20684;-52
2022/04/03 07:39:37;;;;;;;0.00;0.00;;;;;;;1.87;79.85;98982.91;5030532;28;20192;-50
2022/04/03 07:42:05;;;;;;;0.00;0.00;;;;;;;1.60;79.98;98984.34;5030753;28;20506;-50
2022/04/03 07:44:33;;;;;;;0.00;0.00;;;;;;;1.95;79.46;98987.63;5030420;28;20209;-51
2022/04/03 07:47:00;;;;;;;0.00;0.00;;;;;;;2.04;78.74;98987.91;5030364;28;20212;-50
2022/04/03 07:49:26;;;;;;;0.00;0.00;;;;;;;2.00;77.05;98994.16;5017008;28;20246;-50
2022/04/03 07:51:53;;;;;;;0.00;0.00;;;;;;;1.59;79.29;98989.59;5005112;28;20263;-50
2022/04/03 07:54:35;;;;;;;0.00;0.00;;;;;;;1.50;80.68;98995.25;5009694;28;20215;-49
2022/04/03 07:57:08;;;;;;;0.00;0.00;;;;;;;1.73;79.94;98993.97;5005367;28;20229;-52
2022/04/03 07:59:36;;;;;;;0.00;0.00;;;;;;;1.96;78.83;99004.72;5009538;28;20209;-51
2022/04/03 08:02:03;;;;;;;0.00;0.00;;;;;;;2.31;77.37;98994.13;5010221;28;20185;-52
2022/04/03 08:04:30;;;;;;;0.00;0.00;;;;;;;2.28;76.02;99007.19;5010129;28;20224;-54
2022/04/03 08:06:57;;;;;;;0.00;0.00;;;;;;;2.28;76.69;99007.19;5007327;28;20260;-55
2022/04/03 08:09:23;;;;;;;0.00;0.00;;;;;;;2.26;77.21;99004.72;5010139;28;20192;-53
2022/04/03 08:11:50;;;;;;;0.00;0.00;;;;;;;1.80;78.28;99004.75;5009561;28;20202;-53
2022/04/03 08:14:18;;;;;;;0.00;0.00;;;;;;;1.90;78.01;99009.31;5009685;28;20214;-54
2022/04/03 08:16:46;;;;;;;0.00;0.00;;;;;;;1.89;77.54;99006.81;5010337;28;20212;-53
2022/04/03 08:19:13;;;;;;;0.00;0.00;;;;;;;1.76;78.24;99012.63;5010500;28;20192;-52
2022/04/03 08:21:40;;;;;;;0.00;0.00;;;;;;;2.12;76.03;99018.38;5010033;28;20642;-53
2022/04/03 08:24:07;;;;;;;0.00;0.00;;;;;;;2.19;77.63;99014.53;5007437;28;20707;-51
2022/04/03 08:26:34;;;;;;;0.00;0.00;;;;;;;2.31;75.60;99023.31;5007658;28;20196;-52
2022/04/03 08:29:00;;;;;;;0.00;0.00;;;;;;;1.99;76.91;99028.53;5008828;28;20460;-52
2022/04/03 08:31:27;;;;;;;0.00;0.00;;;;;;;1.87;78.24;99018.94;5009461;28;20206;-52
2022/04/03 08:33:56;;;;;;;0.00;0.00;;;;;;;1.90;78.21;99026.50;5009994;28;20260;-53
2022/04/03 08:36:25;;;;;;;0.00;0.00;;;;;;;1.44;80.26;99027.28;5005686;28;20705;-52
2022/04/03 08:38:52;;;;;;;0.00;0.00;;;;;;;1.52;81.47;99026.88;5010212;28;20204;-52
2022/04/03 08:41:19;;;;;;;0.00;0.00;;;;;;;1.31;82.49;99032.25;5010177;28;20182;-53
2022/04/03 08:43:47;;;;;;;0.00;0.00;;;;;;;1.53;81.52;99033.69;5010428;28;20204;-53
2022/04/03 08:46:14;;;;;;;0.00;0.00;;;;;;;1.42;82.73;99034.25;5009798;28;20188;-54
2022/04/03 08:48:44;;;;;;;0.00;0.00;;;;;;;1.55;81.84;99037.00;5009951;28;20230;-52
2022/04/03 08:51:13;;;;;;;0.00;0.00;;;;;;;1.89;80.11;99033.41;5006951;28;20200;-53
2022/04/03 08:53:40;;;;;;;0.00;0.00;;;;;;;1.62;80.50;99035.72;5026756;28;20266;-50
2022/04/03 08:56:07;;;;;;;0.00;0.00;;;;;;;1.81;80.60;99035.56;5013403;28;20270;-53
2022/04/03 08:58:34;;;;;;;0.00;0.00;;;;;;;1.98;80.30;99036.38;5009293;28;20197;-52
2022/04/03 09:01:01;;;;;;;0.00;0.00;;;;;;;2.09;79.45;99038.34;5009288;28;20193;-52
2022/04/03 09:03:28;;;;;;;0.00;0.00;;;;;;;2.19;78.05;99042.88;5010032;28;20211;-49
2022/04/03 09:06:13;;;;;;;0.00;0.00;;;;;;;2.00;77.86;99050.00;5008729;28;20184;-53
2022/04/03 09:08:41;;;;;;;0.00;0.00;;;;;;;1.73;78.33;99042.88;5009553;28;20660;-50
2022/04/03 09:11:08;;;;;;;0.00;0.00;;;;;;;1.87;76.28;99035.22;5009185;28;20200;-52
2022/04/03 09:13:35;;;;;;;0.00;0.00;;;;;;;1.83;77.73;99049.19;5008686;28;20260;-51
2022/04/03 09:16:02;;;;;;;0.00;0.00;;;;;;;2.00;78.43;99044.84;5009061;28;20209;-50
2022/04/03 09:18:46;;;;;;;0.00;0.00;;;;;;;1.92;76.25;99045.25;5009473;28;20669;-51
2022/04/03 09:21:20;;;;;;;0.00;0.00;;;;;;;2.01;76.26;99044.75;5008907;28;20251;-51
2022/04/03 09:23:57;;;;;;;0.00;0.00;;;;;;;2.10;76.29;99048.56;5009996;28;20284;-52
2022/04/03 09:26:24;;;;;;;0.00;0.00;;;;;;;2.36;74.18;99046.22;5009386;28;20193;-50
2022/04/03 09:28:51;;;;;;;0.00;0.00;;;;;;;2.49;73.67;99049.75;5010172;28;20451;-51
2022/04/03 09:31:25;;;;;;;0.00;0.00;;;;;;;2.88;73.02;99052.66;5009469;28;20188;-52
2022/04/03 09:33:59;;;;;;;0.00;0.00;;;;;;;2.86;73.07;99057.06;5009191;28;20392;-49
2022/04/03 09:36:30;;;;;;;0.00;0.00;;;;;;;3.54;70.03;99059.91;5009540;28;20252;-50
2022/04/03 09:39:06;;;;;;;0.00;0.00;;;;;;;3.37;66.69;99066.09;5012317;28;20185;-51
2022/04/03 09:41:33;;;;;;;0.00;0.00;;;;;;;4.25;64.98;99064.94;5012840;28;20184;-51
2022/04/03 09:44:00;;;;;;;0.00;0.00;;;;;;;4.79;62.69;99066.56;5009642;28;20220;-53
2022/04/03 09:46:30;;;;;;;0.00;0.00;;;;;;;3.16;65.83;99069.06;5012738;28;20181;-54
2022/04/03 09:48:56;;;;;;;0.00;0.00;;;;;;;3.65;65.33;99067.00;5012795;28;20599;-52
2022/04/03 09:51:23;;;;;;;0.00;0.00;;;;;;;3.45;63.12;99069.06;5010789;28;20204;-53
2022/04/03 09:53:53;;;;;;;0.00;0.00;;;;;;;3.92;64.59;99071.31;5011241;28;20723;-52
2022/04/03 09:56:31;;;;;;;0.00;0.00;;;;;;;3.93;64.57;99075.56;5010357;28;20224;-53
2022/04/03 09:58:59;;;;;;;0.00;0.00;;;;;;;4.24;61.89;99076.19;5009730;28;20196;-51
2022/04/03 10:01:29;;;;;;;0.00;0.00;;;;;;;4.60;60.13;99084.22;5012301;28;20200;-54
2022/04/03 10:03:57;;;;;;;0.00;0.00;;;;;;;4.06;62.31;99084.19;5011792;28;20771;-53
2022/04/03 10:06:24;;;;;;;0.00;0.00;;;;;;;4.09;64.16;99085.75;5012958;28;20189;-53
2022/04/03 10:08:53;;;;;;;0.00;0.00;;;;;;;4.15;62.50;99085.38;5012838;28;20191;-52
2022/04/03 10:11:20;;;;;;;0.00;0.00;;;;;;;4.17;62.51;99086.09;5009630;28;20189;-53
2022/04/03 10:13:49;;;;;;;0.00;0.00;;;;;;;4.35;59.68;99078.91;5012251;28;20208;-52
2022/04/03 10:16:17;;;;;;;0.00;0.00;;;;;;;4.61;59.83;99084.13;5011214;28;20208;-52
2022/04/03 10:18:44;;;;;;;0.00;0.00;;;;;;;4.60;58.76;99084.22;5011902;28;20216;-53
2022/04/03 10:21:16;;;;;;;0.00;0.00;;;;;;;4.29;59.73;99082.69;5012094;28;20188;-54
2022/04/03 10:23:45;;;;;;;0.00;0.00;;;;;;;4.47;60.82;99082.44;5009286;28;20312;-52
2022/04/03 10:26:18;;;;;;;0.00;0.00;;;;;;;4.99;60.30;99077.31;5010848;28;20199;-54
2022/04/03 10:28:50;;;;;;;0.00;0.00;;;;;;;5.26;57.45;99082.38;5011101;28;20596;-54
2022/04/03 10:31:17;;;;;;;0.00;0.00;;;;;;;5.18;58.23;99079.47;5009008;28;20194;-54
2022/04/03 10:33:49;;;;;;;0.00;0.00;;;;;;;4.91;57.22;99075.22;5011384;28;20218;-55
2022/04/03 10:36:24;;;;;;;0.00;0.00;;;;;;;4.47;59.61;99079.84;5011272;28;20204;-53
2022/04/03 10:38:57;;;;;;;0.00;0.00;;;;;;;4.23;61.20;99077.97;5012007;28;20210;-53
2022/04/03 10:41:30;;;;;;;0.00;0.00;;;;;;;4.67;59.05;99075.97;5010146;28;20624;-54
2022/04/03 10:44:14;;;;;;;0.00;0.00;;;;;;;4.32;60.49;99076.53;5012020;28;20204;-54
2022/04/03 10:47:14;;;;;;;0.00;0.00;;;;;;;4.36;61.82;99069.38;5011763;28;20209;-54
2022/04/03 10:49:48;;;;;;;0.00;0.00;;;;;;;4.49;61.35;99072.81;5007836;28;20221;-54
2022/04/03 10:52:25;;;;;;;0.00;0.00;;;;;;;4.25;60.73;99073.50;5010444;28;20192;-53
2022/04/03 10:54:53;;;;;;;0.00;0.00;;;;;;;3.75;60.65;99075.78;5017155;28;20220;-54
2022/04/03 10:57:35;;;;;;;0.00;0.00;;;;;;;3.60;63.11;99074.19;5031161;28;20212;-53
2022/04/03 11:00:36;;;;;;;0.00;0.00;;;;;;;3.98;61.48;99076.09;5031351;28;20191;-53
2022/04/03 11:03:31;;;;;;;0.00;0.00;;;;;;;3.97;62.30;99072.69;5031148;28;20187;-53
2022/04/03 11:05:58;;;;;;;0.00;0.00;;;;;;;3.77;62.92;99073.94;5030846;28;20184;-53
2022/04/03 11:08:43;;;;;;;0.00;0.00;;;;;;;3.50;63.80;99076.50;5031447;28;20192;-53
2022/04/03 11:11:10;;;;;;;0.00;0.00;;;;;;;3.71;61.57;99076.09;5031162;28;20239;-52
2022/04/03 11:13:42;;;;;;;0.00;0.00;;;;;;;3.06;63.56;99070.53;5029889;28;20247;-53
2022/04/03 11:16:09;;;;;;;0.00;0.00;;;;;;;3.12;67.83;99070.16;5030814;28;20263;-52
2022/04/03 11:18:39;;;;;;;0.00;0.00;;;;;;;3.30;66.92;99072.56;5029269;28;20672;-53
2022/04/03 11:21:10;;;;;;;0.00;0.00;;;;;;;3.06;68.89;99073.97;5009588;28;20195;-50
2022/04/03 11:23:39;;;;;;;0.00;0.00;;;;;;;3.29;67.13;99079.47;5010790;28;20243;-53
2022/04/03 11:26:06;;;;;;;0.00;0.00;;;;;;;2.76;69.57;99074.00;5010614;28;20660;-49
2022/04/03 11:28:34;;;;;;;0.00;0.00;;;;;;;2.86;70.50;99069.16;5009854;28;20620;-49
2022/04/03 11:31:03;;;;;;;0.00;0.00;;;;;;;3.04;69.80;99080.13;5010838;28;20214;-50
2022/04/03 11:33:32;;;;;;;0.00;0.00;;;;;;;2.35;73.32;99076.31;5010937;28;20292;-53
2022/04/03 11:36:03;;;;;;;0.00;0.00;;;;;;;2.26;75.74;99076.00;5010843;28;20184;-51
2022/04/03 11:38:35;;;;;;;0.00;0.00;;;;;;;2.42;76.64;99063.91;5011134;28;20723;-51
2022/04/03 11:41:03;;;;;;;0.00;0.00;;;;;;;2.82;73.98;99065.09;5010698;28;20673;-52